| time (UTC) | temp F | wind direction | speed MPH | gust MPH | rain 1hr in | rain 24hr in | rain mn in | humidity % | barometer mb |
| 20260831174548 | 75 | 217 | 0.0 | 6.0 | 0.00 | 0.58 | 0.16 | 76 | 1020.7 |
| 20260831173048 | 74 | 182 | 1.0 | 4.0 | 0.00 | 0.58 | 0.16 | 75 | 1020.6 |
| 20260831171544 | 76 | 344 | 1.0 | 5.0 | 0.00 | 0.58 | 0.16 | 72 | 1020.4 |
| 20260831170054 | 75 | 355 | 2.0 | 6.0 | 0.00 | 0.58 | 0.16 | 75 | 1020.6 |
| 20260831164547 | 75 | 0 | 1.0 | 5.0 | 0.00 | 0.58 | 0.16 | 75 | 1020.8 |
| 20260831163049 | 75 | 300 | 0.0 | 8.0 | 0.00 | 0.58 | 0.16 | 76 | 1020.9 |
| 20260831161603 | 75 | 25 | 3.0 | 8.0 | 0.00 | 0.58 | 0.16 | 74 | 1020.9 |
| 20260831160055 | 75 | 287 | 3.0 | 8.0 | 0.00 | 0.58 | 0.16 | 74 | 1020.7 |
| 20260831154618 | 74 | 336 | 4.0 | 8.0 | 0.00 | 0.58 | 0.16 | 76 | 1020.9 |
| 20260831153055 | 73 | 340 | 3.0 | 9.0 | 0.00 | 0.58 | 0.16 | 78 | 1021.1 |
| 20260831151555 | 72 | 0 | 1.0 | 5.0 | 0.00 | 0.58 | 0.16 | 76 | 1021.1 |
| 20260831150051 | 71 | 13 | 1.0 | 9.0 | 0.00 | 0.58 | 0.16 | 78 | 1021.1 |
| 20260831144543 | 70 | 20 | 1.0 | 9.0 | 0.00 | 0.58 | 0.16 | 79 | 1021.0 |
| 20260831143103 | 70 | 0 | 2.0 | 13.0 | 0.00 | 0.58 | 0.16 | 83 | 1021.0 |
| 20260831141546 | 70 | 33 | 3.0 | 8.0 | 0.00 | 0.58 | 0.16 | 84 | 1020.9 |
| 20260831140048 | 69 | 32 | 2.0 | 9.0 | 0.00 | 0.58 | 0.16 | 84 | 1020.8 |
| 20260831134550 | 68 | 93 | 3.0 | 12.0 | 0.00 | 0.58 | 0.16 | 82 | 1020.5 |
| 20260831133046 | 68 | 32 | 3.0 | 13.0 | 0.00 | 0.58 | 0.16 | 85 | 1020.4 |
| 20260831131545 | 67 | 17 | 4.0 | 11.0 | 0.00 | 0.58 | 0.16 | 87 | 1020.4 |
| 20260831130057 | 67 | 53 | 5.0 | 14.0 | 0.00 | 0.58 | 0.16 | 88 | 1020.4 |
| 20260831124545 | 66 | 61 | 4.0 | 13.0 | 0.00 | 0.58 | 0.16 | 90 | 1020.5 |
| 20260831123055 | 66 | 32 | 5.0 | 11.0 | 0.00 | 0.58 | 0.16 | 93 | 1020.3 |
| 20260831121554 | 65 | 24 | 5.0 | 11.0 | 0.00 | 0.58 | 0.16 | 96 | 1020.2 |
| 20260831120046 | 65 | 35 | 2.0 | 9.0 | 0.00 | 0.58 | 0.16 | 97 | 1020.2 |
| 20260831114552 | 65 | 42 | 3.0 | 8.0 | 0.00 | 0.58 | 0.16 | 98 | 1020.1 |
| 20260831113053 | 65 | 17 | 4.0 | 10.0 | 0.00 | 0.58 | 0.16 | 98 | 1020.1 |
| 20260831111550 | 64 | 27 | 2.0 | 6.0 | 0.00 | 0.58 | 0.16 | 97 | 1019.8 |
| 20260831110057 | 64 | 19 | 1.0 | 6.0 | 0.00 | 0.58 | 0.16 | 97 | 1020.0 |
| 20260831104550 | 64 | 13 | 2.0 | 5.0 | 0.00 | 0.58 | 0.16 | 97 | 1019.8 |
| 20260831103047 | 64 | 40 | 2.0 | 5.0 | 0.00 | 0.58 | 0.16 | 97 | 1019.7 |
| 20260831101556 | 64 | 25 | 2.0 | 5.0 | 0.00 | 0.58 | 0.16 | 97 | 1019.5 |
| 20260831100050 | 64 | 16 | 2.0 | 5.0 | 0.00 | 0.58 | 0.16 | 97 | 1019.2 |
| 20260831094545 | 64 | 22 | 1.0 | 3.0 | 0.00 | 0.58 | 0.16 | 98 | 1019.0 |
| 20260831093046 | 64 | 9 | 1.0 | 4.0 | 0.00 | 0.58 | 0.16 | 97 | 1018.9 |
| 20260831091548 | 65 | 360 | 1.0 | 7.0 | 0.00 | 0.58 | 0.16 | 97 | 1018.7 |
| 20260831090045 | 65 | 13 | 2.0 | 5.0 | 0.00 | 0.58 | 0.16 | 98 | 1018.8 |
| 20260831084547 | 65 | 10 | 2.0 | 5.0 | 0.00 | 0.58 | 0.16 | 98 | 1018.7 |
| 20260831083056 | 65 | 355 | 2.0 | 8.0 | 0.00 | 0.58 | 0.16 | 98 | 1018.7 |
| 20260831081545 | 66 | 350 | 2.0 | 5.0 | 0.00 | 0.58 | 0.16 | 98 | 1018.5 |
| 20260831080057 | 66 | 355 | 2.0 | 4.0 | 0.00 | 0.58 | 0.16 | 98 | 1018.6 |
| 20260831074547 | 66 | 341 | 1.0 | 4.0 | 0.00 | 0.58 | 0.16 | 98 | 1018.6 |
| 20260831073052 | 66 | 340 | 1.0 | 5.0 | 0.00 | 0.58 | 0.16 | 98 | 1018.5 |
| 20260831071547 | 67 | 22 | 2.0 | 8.0 | 0.00 | 0.58 | 0.16 | 98 | 1018.4 |
| 20260831070108 | 67 | 360 | 2.0 | 8.0 | 0.00 | 0.58 | 0.16 | 98 | 1018.2 |
| 20260831064606 | 67 | 355 | 3.0 | 10.0 | 0.00 | 0.58 | 0.16 | 98 | 1018.1 |
| 20260831063048 | 67 | 355 | 3.0 | 9.0 | 0.00 | 0.58 | 0.16 | 98 | 1018.0 |
| 20260831061546 | 67 | 306 | 2.0 | 6.0 | 0.00 | 0.58 | 0.16 | 98 | 1017.9 |
| 20260831060047 | 67 | 331 | 1.0 | 5.0 | 0.00 | 0.58 | 0.16 | 98 | 1017.8 |
| 20260831054601 | 67 | 348 | 0.0 | 4.0 | 0.01 | 0.58 | 0.16 | 98 | 1017.9 |
| 20260831053046 | 68 | 0 | 1.0 | 5.0 | 0.01 | 0.58 | 0.16 | 98 | 1017.9 |
| 20260831051552 | 68 | 10 | 1.0 | 6.0 | 0.01 | 0.58 | 0.16 | 98 | 1017.7 |
| 20260831050051 | 68 | 278 | 1.0 | 3.0 | 0.13 | 0.58 | 0.16 | 97 | 1017.6 |
| 20260831044604 | 68 | 318 | 0.0 | 8.0 | 0.22 | 0.58 | 0.15 | 97 | 1017.6 |
| 20260831043044 | 69 | 274 | 1.0 | 4.0 | 0.28 | 0.58 | 0.15 | 97 | 1017.6 |
| 20260831041609 | 70 | 269 | 1.0 | 11.0 | 0.34 | 0.58 | 0.15 | 98 | 1017.6 |
| 20260831040101 | 70 | 216 | 0.0 | 3.0 | 0.26 | 0.44 | 0.01 | 97 | 1017.8 |
| 20260831034556 | 70 | 0 | 0.0 | 0.0 | 0.34 | 0.36 | 0.36 | 97 | 1017.8 |
| 20260831033051 | 70 | 0 | 0.0 | 0.0 | 0.29 | 0.30 | 0.30 | 96 | 1017.8 |
| 20260831031545 | 70 | 0 | 0.0 | 2.0 | 0.23 | 0.24 | 0.24 | 96 | 1018.0 |
| 20260831030051 | 70 | 0 | 0.0 | 2.0 | 0.17 | 0.17 | 0.17 | 95 | 1017.8 |
| 20260831024553 | 70 | 0 | 0.0 | 3.0 | 0.02 | 0.02 | 0.02 | 94 | 1018.1 |
| 20260831023049 | 70 | 209 | 0.0 | 2.0 | 0.01 | 0.01 | 0.01 | 93 | 1018.0 |
| 20260831021546 | 70 | 215 | 1.0 | 5.0 | 0.01 | 0.01 | 0.01 | 93 | 1018.0 |
| 20260831020045 | 70 | 252 | 1.0 | 7.0 | 0.00 | 0.00 | 0.00 | 93 | 1018.3 |
| 20260831014548 | 70 | 247 | 1.0 | 9.0 | 0.00 | 0.00 | 0.00 | 92 | 1018.1 |
| 20260831013052 | 71 | 236 | 3.0 | 10.0 | 0.00 | 0.00 | 0.00 | 91 | 1018.2 |
| 20260831011548 | 71 | 231 | 5.0 | 13.0 | 0.00 | 0.00 | 0.00 | 89 | 1018.1 |
| 20260831010049 | 71 | 221 | 4.0 | 12.0 | 0.00 | 0.00 | 0.00 | 89 | 1018.2 |
| 20260831004547 | 71 | 251 | 5.0 | 16.0 | 0.00 | 0.00 | 0.00 | 88 | 1017.9 |
| 20260831003044 | 71 | 217 | 3.0 | 12.0 | 0.00 | 0.00 | 0.00 | 88 | 1018.0 |
| 20260831001551 | 71 | 215 | 4.0 | 14.0 | 0.00 | 0.00 | 0.00 | 88 | 1018.0 |
| 20260831000049 | 71 | 229 | 4.0 | 10.0 | 0.00 | 0.00 | 0.00 | 89 | 1017.9 |
| 20260830234558 | 71 | 216 | 4.0 | 9.0 | 0.00 | 0.00 | 0.00 | 90 | 1017.7 |
| 20260830233044 | 71 | 246 | 4.0 | 12.0 | 0.00 | 0.00 | 0.00 | 90 | 1017.7 |
| 20260830231559 | 71 | 231 | 3.0 | 13.0 | 0.00 | 0.00 | 0.00 | 90 | 1017.6 |
| 20260830230049 | 71 | 216 | 3.0 | 12.0 | 0.00 | 0.00 | 0.00 | 90 | 1017.7 |
| 20260830224554 | 71 | 254 | 4.0 | 12.0 | 0.00 | 0.00 | 0.00 | 89 | 1017.7 |
| 20260830223057 | 72 | 225 | 3.0 | 12.0 | 0.00 | 0.00 | 0.00 | 89 | 1017.9 |
| 20260830221559 | 72 | 244 | 2.0 | 12.0 | 0.00 | 0.00 | 0.00 | 88 | 1017.9 |
| 20260830220050 | 72 | 240 | 3.0 | 10.0 | 0.00 | 0.00 | 0.00 | 88 | 1018.1 |
| 20260830214557 | 72 | 233 | 4.0 | 10.0 | 0.00 | 0.00 | 0.00 | 88 | 1018.2 |
| 20260830213051 | 73 | 196 | 5.0 | 17.0 | 0.00 | 0.00 | 0.00 | 86 | 1018.2 |
| 20260830211545 | 73 | 204 | 3.0 | 9.0 | 0.00 | 0.00 | 0.00 | 81 | 1018.3 |
| 20260830210047 | 73 | 200 | 3.0 | 10.0 | 0.00 | 0.00 | 0.00 | 79 | 1018.2 |
| 20260830204548 | 74 | 178 | 3.0 | 11.0 | 0.00 | 0.00 | 0.00 | 77 | 1018.3 |
| 20260830203047 | 75 | 230 | 5.0 | 15.0 | 0.00 | 0.00 | 0.00 | 74 | 1018.4 |
| 20260830201547 | 77 | 211 | 3.0 | 8.0 | 0.00 | 0.00 | 0.00 | 72 | 1018.3 |
| 20260830200043 | 79 | 234 | 3.0 | 10.0 | 0.00 | 0.00 | 0.00 | 70 | 1018.3 |
| 20260830194551 | 80 | 210 | 4.0 | 12.0 | 0.00 | 0.00 | 0.00 | 68 | 1018.7 |
| 20260830193049 | 80 | 221 | 2.0 | 12.0 | 0.00 | 0.00 | 0.00 | 67 | 1018.9 |
| 20260830191552 | 79 | 302 | 2.0 | 10.0 | 0.00 | 0.00 | 0.00 | 63 | 1019.2 |
| 20260830190051 | 80 | 197 | 4.0 | 11.0 | 0.00 | 0.00 | 0.00 | 59 | 1019.2 |
| 20260830184545 | 80 | 215 | 3.0 | 10.0 | 0.00 | 0.00 | 0.00 | 61 | 1019.2 |
| 20260830183046 | 82 | 112 | 4.0 | 11.0 | 0.00 | 0.00 | 0.00 | 64 | 1019.5 |
| 20260830181549 | 80 | 239 | 4.0 | 10.0 | 0.00 | 0.00 | 0.00 | 65 | 1019.4 |
| 20260830180058 | 79 | 188 | 3.0 | 16.0 | 0.00 | 0.00 | 0.00 | 68 | 1019.8 |